sensor_id;sensor_type;location;lat;lon;timestamp;P1;durP1;ratioP1;P2;durP2;ratioP2
1563;SDS011;775;51.958;7.976;2023-06-14T00:01:59;12.13;;;6.07;;
1563;SDS011;775;51.958;7.976;2023-06-14T00:04:27;11.77;;;6.13;;
1563;SDS011;775;51.958;7.976;2023-06-14T00:06:55;13.20;;;6.00;;
1563;SDS011;775;51.958;7.976;2023-06-14T00:09:22;11.30;;;5.67;;
1563;SDS011;775;51.958;7.976;2023-06-14T00:11:49;11.30;;;5.47;;
1563;SDS011;775;51.958;7.976;2023-06-14T00:14:17;12.80;;;4.97;;
1563;SDS011;775;51.958;7.976;2023-06-14T00:16:44;10.30;;;4.37;;
1563;SDS011;775;51.958;7.976;2023-06-14T00:19:11;10.20;;;3.80;;
1563;SDS011;775;51.958;7.976;2023-06-14T00:21:39;13.13;;;3.80;;
1563;SDS011;775;51.958;7.976;2023-06-14T00:24:06;10.03;;;3.90;;
1563;SDS011;775;51.958;7.976;2023-06-14T00:26:34;12.00;;;3.80;;
1563;SDS011;775;51.958;7.976;2023-06-14T00:29:01;11.73;;;3.73;;
1563;SDS011;775;51.958;7.976;2023-06-14T00:31:28;10.90;;;3.83;;
1563;SDS011;775;51.958;7.976;2023-06-14T00:33:55;12.33;;;3.70;;
1563;SDS011;775;51.958;7.976;2023-06-14T00:36:22;11.80;;;3.23;;
1563;SDS011;775;51.958;7.976;2023-06-14T00:38:51;11.50;;;4.27;;
1563;SDS011;775;51.958;7.976;2023-06-14T00:41:18;11.33;;;3.87;;
1563;SDS011;775;51.958;7.976;2023-06-14T00:43:45;12.23;;;4.20;;
1563;SDS011;775;51.958;7.976;2023-06-14T00:46:12;10.90;;;4.13;;
1563;SDS011;775;51.958;7.976;2023-06-14T00:48:39;13.90;;;4.87;;
1563;SDS011;775;51.958;7.976;2023-06-14T00:51:07;13.00;;;6.13;;
1563;SDS011;775;51.958;7.976;2023-06-14T00:53:34;13.43;;;6.27;;
1563;SDS011;775;51.958;7.976;2023-06-14T00:56:03;14.10;;;6.90;;
1563;SDS011;775;51.958;7.976;2023-06-14T00:58:30;13.90;;;6.73;;
1563;SDS011;775;51.958;7.976;2023-06-14T01:00:57;14.20;;;5.80;;
1563;SDS011;775;51.958;7.976;2023-06-14T01:03:24;15.20;;;6.17;;
1563;SDS011;775;51.958;7.976;2023-06-14T01:05:53;13.27;;;5.57;;
1563;SDS011;775;51.958;7.976;2023-06-14T01:08:28;14.10;;;5.40;;
1563;SDS011;775;51.958;7.976;2023-06-14T01:11:01;16.77;;;5.30;;
1563;SDS011;775;51.958;7.976;2023-06-14T01:13:33;10.67;;;4.07;;
1563;SDS011;775;51.958;7.976;2023-06-14T01:16:01;10.90;;;4.50;;
1563;SDS011;775;51.958;7.976;2023-06-14T01:18:28;12.13;;;4.73;;
1563;SDS011;775;51.958;7.976;2023-06-14T01:20:57;10.90;;;3.80;;
1563;SDS011;775;51.958;7.976;2023-06-14T01:23:26;11.77;;;4.27;;
1563;SDS011;775;51.958;7.976;2023-06-14T01:25:58;9.80;;;3.77;;
1563;SDS011;775;51.958;7.976;2023-06-14T01:28:27;11.37;;;4.27;;
1563;SDS011;775;51.958;7.976;2023-06-14T01:30:57;13.53;;;3.97;;
1563;SDS011;775;51.958;7.976;2023-06-14T01:33:29;10.13;;;3.80;;
1563;SDS011;775;51.958;7.976;2023-06-14T01:35:57;11.30;;;3.90;;
1563;SDS011;775;51.958;7.976;2023-06-14T01:38:26;11.10;;;4.17;;
1563;SDS011;775;51.958;7.976;2023-06-14T01:40:54;11.77;;;4.50;;
1563;SDS011;775;51.958;7.976;2023-06-14T01:43:22;11.43;;;3.37;;
1563;SDS011;775;51.958;7.976;2023-06-14T01:45:50;12.93;;;3.60;;
1563;SDS011;775;51.958;7.976;2023-06-14T01:48:18;12.50;;;3.60;;
1563;SDS011;775;51.958;7.976;2023-06-14T01:50:45;10.70;;;3.83;;
1563;SDS011;775;51.958;7.976;2023-06-14T01:53:12;11.10;;;3.60;;
1563;SDS011;775;51.958;7.976;2023-06-14T01:55:41;9.60;;;3.00;;
1563;SDS011;775;51.958;7.976;2023-06-14T01:58:13;9.63;;;3.33;;
1563;SDS011;775;51.958;7.976;2023-06-14T02:00:41;10.63;;;4.60;;
1563;SDS011;775;51.958;7.976;2023-06-14T02:03:10;12.33;;;4.37;;
1563;SDS011;775;51.958;7.976;2023-06-14T02:05:38;11.40;;;4.33;;
1563;SDS011;775;51.958;7.976;2023-06-14T02:08:05;11.07;;;4.33;;
1563;SDS011;775;51.958;7.976;2023-06-14T02:10:32;13.73;;;4.70;;
1563;SDS011;775;51.958;7.976;2023-06-14T02:13:01;12.57;;;4.50;;
1563;SDS011;775;51.958;7.976;2023-06-14T02:15:28;13.90;;;3.90;;
1563;SDS011;775;51.958;7.976;2023-06-14T02:17:59;12.80;;;4.40;;
1563;SDS011;775;51.958;7.976;2023-06-14T02:20:26;11.27;;;3.60;;
1563;SDS011;775;51.958;7.976;2023-06-14T02:22:54;10.50;;;4.33;;
1563;SDS011;775;51.958;7.976;2023-06-14T02:25:21;12.77;;;4.17;;
1563;SDS011;775;51.958;7.976;2023-06-14T02:27:48;12.30;;;3.53;;
1563;SDS011;775;51.958;7.976;2023-06-14T02:30:16;10.63;;;3.80;;
1563;SDS011;775;51.958;7.976;2023-06-14T02:32:43;10.27;;;3.10;;
1563;SDS011;775;51.958;7.976;2023-06-14T02:35:10;10.53;;;3.70;;
1563;SDS011;775;51.958;7.976;2023-06-14T02:37:38;10.33;;;3.60;;
1563;SDS011;775;51.958;7.976;2023-06-14T02:40:05;11.10;;;3.53;;
1563;SDS011;775;51.958;7.976;2023-06-14T02:42:34;10.60;;;4.00;;
1563;SDS011;775;51.958;7.976;2023-06-14T02:45:01;10.30;;;4.03;;
1563;SDS011;775;51.958;7.976;2023-06-14T02:47:30;10.43;;;3.67;;
1563;SDS011;775;51.958;7.976;2023-06-14T02:49:57;11.30;;;4.27;;
1563;SDS011;775;51.958;7.976;2023-06-14T02:52:24;11.33;;;4.30;;
1563;SDS011;775;51.958;7.976;2023-06-14T02:54:51;11.83;;;4.63;;
1563;SDS011;775;51.958;7.976;2023-06-14T02:57:19;12.77;;;4.07;;
1563;SDS011;775;51.958;7.976;2023-06-14T02:59:46;11.13;;;4.20;;
1563;SDS011;775;51.958;7.976;2023-06-14T03:02:13;11.10;;;4.03;;
1563;SDS011;775;51.958;7.976;2023-06-14T03:04:41;12.00;;;4.03;;
1563;SDS011;775;51.958;7.976;2023-06-14T03:07:09;12.10;;;4.53;;
1563;SDS011;775;51.958;7.976;2023-06-14T03:09:37;10.67;;;3.47;;
1563;SDS011;775;51.958;7.976;2023-06-14T03:12:05;10.37;;;3.93;;
1563;SDS011;775;51.958;7.976;2023-06-14T03:14:33;10.60;;;3.77;;
1563;SDS011;775;51.958;7.976;2023-06-14T03:17:00;10.33;;;3.37;;
1563;SDS011;775;51.958;7.976;2023-06-14T03:19:27;11.53;;;3.50;;
1563;SDS011;775;51.958;7.976;2023-06-14T03:21:55;9.47;;;2.73;;
1563;SDS011;775;51.958;7.976;2023-06-14T03:24:23;9.60;;;2.90;;
1563;SDS011;775;51.958;7.976;2023-06-14T03:26:52;10.27;;;2.90;;
1563;SDS011;775;51.958;7.976;2023-06-14T03:29:19;10.50;;;3.30;;
1563;SDS011;775;51.958;7.976;2023-06-14T03:31:56;9.40;;;3.07;;
1563;SDS011;775;51.958;7.976;2023-06-14T03:34:24;10.80;;;2.43;;
1563;SDS011;775;51.958;7.976;2023-06-14T03:36:51;14.30;;;3.13;;
1563;SDS011;775;51.958;7.976;2023-06-14T03:39:19;9.53;;;2.70;;
1563;SDS011;775;51.958;7.976;2023-06-14T03:41:46;12.20;;;3.23;;
1563;SDS011;775;51.958;7.976;2023-06-14T03:44:14;9.40;;;2.73;;
1563;SDS011;775;51.958;7.976;2023-06-14T03:46:41;12.47;;;3.13;;
1563;SDS011;775;51.958;7.976;2023-06-14T03:49:08;9.43;;;2.33;;
1563;SDS011;775;51.958;7.976;2023-06-14T03:51:36;10.13;;;3.10;;
1563;SDS011;775;51.958;7.976;2023-06-14T03:54:03;9.50;;;2.53;;
1563;SDS011;775;51.958;7.976;2023-06-14T03:56:31;10.80;;;3.30;;
1563;SDS011;775;51.958;7.976;2023-06-14T03:58:58;9.30;;;2.90;;
1563;SDS011;775;51.958;7.976;2023-06-14T04:01:25;9.00;;;2.40;;
1563;SDS011;775;51.958;7.976;2023-06-14T04:03:54;10.37;;;3.23;;
1563;SDS011;775;51.958;7.976;2023-06-14T04:06:21;10.73;;;3.30;;
1563;SDS011;775;51.958;7.976;2023-06-14T04:08:50;9.50;;;2.80;;
1563;SDS011;775;51.958;7.976;2023-06-14T04:11:17;9.90;;;3.30;;
1563;SDS011;775;51.958;7.976;2023-06-14T04:13:46;10.43;;;2.83;;
1563;SDS011;775;51.958;7.976;2023-06-14T04:16:13;11.23;;;3.50;;
1563;SDS011;775;51.958;7.976;2023-06-14T04:18:40;13.50;;;2.53;;
1563;SDS011;775;51.958;7.976;2023-06-14T04:21:07;10.63;;;2.63;;
1563;SDS011;775;51.958;7.976;2023-06-14T04:23:34;11.07;;;3.07;;
1563;SDS011;775;51.958;7.976;2023-06-14T04:26:01;10.13;;;2.87;;
1563;SDS011;775;51.958;7.976;2023-06-14T04:28:28;11.10;;;2.80;;
1563;SDS011;775;51.958;7.976;2023-06-14T04:30:57;9.30;;;3.10;;
1563;SDS011;775;51.958;7.976;2023-06-14T04:33:26;11.40;;;2.80;;
1563;SDS011;775;51.958;7.976;2023-06-14T04:35:53;9.23;;;2.43;;
1563;SDS011;775;51.958;7.976;2023-06-14T04:38:21;9.47;;;2.80;;
1563;SDS011;775;51.958;7.976;2023-06-14T04:40:50;10.17;;;2.73;;
1563;SDS011;775;51.958;7.976;2023-06-14T04:43:18;10.43;;;2.67;;
1563;SDS011;775;51.958;7.976;2023-06-14T04:45:52;9.57;;;2.30;;
1563;SDS011;775;51.958;7.976;2023-06-14T04:48:22;10.50;;;3.10;;
1563;SDS011;775;51.958;7.976;2023-06-14T04:50:49;10.90;;;2.97;;
1563;SDS011;775;51.958;7.976;2023-06-14T04:53:18;11.73;;;2.60;;
1563;SDS011;775;51.958;7.976;2023-06-14T04:55:48;9.43;;;2.60;;
1563;SDS011;775;51.958;7.976;2023-06-14T04:58:15;9.70;;;2.40;;
1563;SDS011;775;51.958;7.976;2023-06-14T05:00:42;9.60;;;2.50;;
1563;SDS011;775;51.958;7.976;2023-06-14T05:03:09;9.43;;;2.80;;
1563;SDS011;775;51.958;7.976;2023-06-14T05:05:40;9.93;;;2.97;;
1563;SDS011;775;51.958;7.976;2023-06-14T05:08:07;10.10;;;2.40;;
1563;SDS011;775;51.958;7.976;2023-06-14T05:10:34;14.80;;;2.63;;
1563;SDS011;775;51.958;7.976;2023-06-14T05:13:02;8.90;;;2.40;;
1563;SDS011;775;51.958;7.976;2023-06-14T05:15:29;10.40;;;2.90;;
1563;SDS011;775;51.958;7.976;2023-06-14T05:17:56;9.97;;;2.87;;
1563;SDS011;775;51.958;7.976;2023-06-14T05:20:23;9.40;;;2.90;;
1563;SDS011;775;51.958;7.976;2023-06-14T05:22:53;12.83;;;3.10;;
1563;SDS011;775;51.958;7.976;2023-06-14T05:25:21;9.90;;;2.80;;
1563;SDS011;775;51.958;7.976;2023-06-14T05:27:49;9.63;;;2.70;;
1563;SDS011;775;51.958;7.976;2023-06-14T05:30:16;10.90;;;3.17;;
1563;SDS011;775;51.958;7.976;2023-06-14T05:32:43;9.80;;;3.10;;
1563;SDS011;775;51.958;7.976;2023-06-14T05:35:10;10.80;;;3.03;;
1563;SDS011;775;51.958;7.976;2023-06-14T05:37:37;9.40;;;2.63;;
1563;SDS011;775;51.958;7.976;2023-06-14T05:40:06;10.40;;;2.63;;
1563;SDS011;775;51.958;7.976;2023-06-14T05:42:34;9.90;;;3.00;;
1563;SDS011;775;51.958;7.976;2023-06-14T05:45:01;8.90;;;2.53;;
1563;SDS011;775;51.958;7.976;2023-06-14T05:47:28;11.50;;;2.73;;
1563;SDS011;775;51.958;7.976;2023-06-14T05:49:55;9.80;;;2.80;;
1563;SDS011;775;51.958;7.976;2023-06-14T05:52:22;10.17;;;2.93;;
1563;SDS011;775;51.958;7.976;2023-06-14T05:54:50;9.33;;;2.77;;
1563;SDS011;775;51.958;7.976;2023-06-14T05:57:18;9.30;;;2.47;;
1563;SDS011;775;51.958;7.976;2023-06-14T05:59:46;10.47;;;3.10;;
1563;SDS011;775;51.958;7.976;2023-06-14T06:02:13;9.30;;;2.60;;
1563;SDS011;775;51.958;7.976;2023-06-14T06:04:40;9.00;;;2.63;;
1563;SDS011;775;51.958;7.976;2023-06-14T06:07:07;10.27;;;2.30;;
1563;SDS011;775;51.958;7.976;2023-06-14T06:09:34;8.90;;;2.50;;
1563;SDS011;775;51.958;7.976;2023-06-14T06:12:01;11.10;;;2.70;;
1563;SDS011;775;51.958;7.976;2023-06-14T06:14:30;9.67;;;2.23;;
1563;SDS011;775;51.958;7.976;2023-06-14T06:16:57;10.73;;;2.33;;
1563;SDS011;775;51.958;7.976;2023-06-14T06:19:24;10.40;;;2.70;;
1563;SDS011;775;51.958;7.976;2023-06-14T06:21:51;9.07;;;2.10;;
1563;SDS011;775;51.958;7.976;2023-06-14T06:24:18;10.63;;;2.70;;
1563;SDS011;775;51.958;7.976;2023-06-14T06:26:45;11.00;;;2.20;;
1563;SDS011;775;51.958;7.976;2023-06-14T06:29:13;9.73;;;2.20;;
1563;SDS011;775;51.958;7.976;2023-06-14T06:31:41;8.77;;;1.90;;
1563;SDS011;775;51.958;7.976;2023-06-14T06:34:08;9.17;;;2.57;;
1563;SDS011;775;51.958;7.976;2023-06-14T06:36:35;10.37;;;2.13;;
1563;SDS011;775;51.958;7.976;2023-06-14T06:39:03;8.93;;;1.90;;
1563;SDS011;775;51.958;7.976;2023-06-14T06:41:35;9.57;;;2.00;;
1563;SDS011;775;51.958;7.976;2023-06-14T06:44:03;9.03;;;2.37;;
1563;SDS011;775;51.958;7.976;2023-06-14T06:46:30;12.93;;;2.40;;
1563;SDS011;775;51.958;7.976;2023-06-14T06:48:58;9.60;;;2.23;;
1563;SDS011;775;51.958;7.976;2023-06-14T06:51:26;9.43;;;2.50;;
1563;SDS011;775;51.958;7.976;2023-06-14T06:53:53;9.57;;;2.33;;
1563;SDS011;775;51.958;7.976;2023-06-14T06:56:20;8.87;;;2.30;;
1563;SDS011;775;51.958;7.976;2023-06-14T06:58:48;9.03;;;2.23;;
1563;SDS011;775;51.958;7.976;2023-06-14T07:01:15;8.60;;;2.00;;
1563;SDS011;775;51.958;7.976;2023-06-14T07:03:43;11.10;;;2.20;;
1563;SDS011;775;51.958;7.976;2023-06-14T07:06:12;8.30;;;1.70;;
1563;SDS011;775;51.958;7.976;2023-06-14T07:08:39;9.20;;;2.00;;
1563;SDS011;775;51.958;7.976;2023-06-14T07:11:06;9.03;;;2.03;;
1563;SDS011;775;51.958;7.976;2023-06-14T07:13:33;9.20;;;2.40;;
1563;SDS011;775;51.958;7.976;2023-06-14T07:16:01;9.57;;;2.23;;
1563;SDS011;775;51.958;7.976;2023-06-14T07:18:29;8.83;;;1.93;;
1563;SDS011;775;51.958;7.976;2023-06-14T07:20:56;8.90;;;1.90;;
1563;SDS011;775;51.958;7.976;2023-06-14T07:23:25;9.77;;;1.83;;
1563;SDS011;775;51.958;7.976;2023-06-14T07:25:52;9.43;;;2.10;;
1563;SDS011;775;51.958;7.976;2023-06-14T07:28:19;10.20;;;1.70;;
1563;SDS011;775;51.958;7.976;2023-06-14T07:30:46;8.90;;;1.80;;
1563;SDS011;775;51.958;7.976;2023-06-14T07:33:14;8.70;;;1.80;;
1563;SDS011;775;51.958;7.976;2023-06-14T07:35:41;8.50;;;1.80;;
1563;SDS011;775;51.958;7.976;2023-06-14T07:38:08;9.20;;;2.00;;
1563;SDS011;775;51.958;7.976;2023-06-14T07:40:36;8.50;;;1.70;;
1563;SDS011;775;51.958;7.976;2023-06-14T07:43:03;9.60;;;1.90;;
1563;SDS011;775;51.958;7.976;2023-06-14T07:45:30;9.20;;;2.00;;
1563;SDS011;775;51.958;7.976;2023-06-14T07:47:57;8.70;;;1.80;;
1563;SDS011;775;51.958;7.976;2023-06-14T07:50:24;9.80;;;1.40;;
1563;SDS011;775;51.958;7.976;2023-06-14T07:52:52;8.60;;;1.50;;
1563;SDS011;775;51.958;7.976;2023-06-14T07:55:19;10.40;;;1.70;;
1563;SDS011;775;51.958;7.976;2023-06-14T07:57:47;9.47;;;1.70;;
1563;SDS011;775;51.958;7.976;2023-06-14T08:00:15;8.50;;;1.63;;
1563;SDS011;775;51.958;7.976;2023-06-14T08:02:43;8.47;;;1.77;;
1563;SDS011;775;51.958;7.976;2023-06-14T08:05:10;8.53;;;1.83;;
1563;SDS011;775;51.958;7.976;2023-06-14T08:07:38;8.60;;;1.60;;
1563;SDS011;775;51.958;7.976;2023-06-14T08:10:05;8.63;;;1.67;;
1563;SDS011;775;51.958;7.976;2023-06-14T08:12:33;9.27;;;1.60;;
1563;SDS011;775;51.958;7.976;2023-06-14T08:15:02;9.10;;;1.20;;
1563;SDS011;775;51.958;7.976;2023-06-14T08:17:29;8.53;;;1.60;;
1563;SDS011;775;51.958;7.976;2023-06-14T08:19:56;8.80;;;1.60;;
1563;SDS011;775;51.958;7.976;2023-06-14T08:22:24;9.50;;;1.80;;
1563;SDS011;775;51.958;7.976;2023-06-14T08:24:53;8.80;;;1.70;;
1563;SDS011;775;51.958;7.976;2023-06-14T08:27:20;8.97;;;1.63;;
1563;SDS011;775;51.958;7.976;2023-06-14T08:29:47;11.23;;;1.80;;
1563;SDS011;775;51.958;7.976;2023-06-14T08:32:16;8.20;;;1.60;;
1563;SDS011;775;51.958;7.976;2023-06-14T08:34:43;8.33;;;1.50;;
1563;SDS011;775;51.958;7.976;2023-06-14T08:37:10;8.33;;;1.60;;
1563;SDS011;775;51.958;7.976;2023-06-14T08:39:37;8.80;;;1.87;;
1563;SDS011;775;51.958;7.976;2023-06-14T08:42:05;8.47;;;1.67;;
1563;SDS011;775;51.958;7.976;2023-06-14T08:44:32;9.60;;;1.73;;
1563;SDS011;775;51.958;7.976;2023-06-14T08:47:00;8.50;;;1.70;;
1563;SDS011;775;51.958;7.976;2023-06-14T08:49:29;9.13;;;1.40;;
1563;SDS011;775;51.958;7.976;2023-06-14T08:51:58;8.50;;;1.57;;
1563;SDS011;775;51.958;7.976;2023-06-14T08:54:25;9.27;;;1.43;;
1563;SDS011;775;51.958;7.976;2023-06-14T08:56:55;9.57;;;1.53;;
1563;SDS011;775;51.958;7.976;2023-06-14T08:59:23;9.43;;;1.30;;
1563;SDS011;775;51.958;7.976;2023-06-14T09:01:51;8.40;;;1.40;;
1563;SDS011;775;51.958;7.976;2023-06-14T09:04:19;8.87;;;1.87;;
1563;SDS011;775;51.958;7.976;2023-06-14T09:06:48;8.43;;;1.60;;
1563;SDS011;775;51.958;7.976;2023-06-14T09:09:17;8.70;;;1.47;;
1563;SDS011;775;51.958;7.976;2023-06-14T09:11:44;8.37;;;1.57;;
1563;SDS011;775;51.958;7.976;2023-06-14T09:14:12;8.70;;;1.50;;
1563;SDS011;775;51.958;7.976;2023-06-14T09:16:40;8.30;;;1.30;;
1563;SDS011;775;51.958;7.976;2023-06-14T09:19:07;8.07;;;1.30;;
1563;SDS011;775;51.958;7.976;2023-06-14T09:21:35;8.60;;;1.47;;
1563;SDS011;775;51.958;7.976;2023-06-14T09:24:04;8.60;;;1.43;;
1563;SDS011;775;51.958;7.976;2023-06-14T09:26:31;8.97;;;1.30;;
1563;SDS011;775;51.958;7.976;2023-06-14T09:28:58;9.60;;;1.60;;
1563;SDS011;775;51.958;7.976;2023-06-14T09:31:25;10.43;;;1.30;;
1563;SDS011;775;51.958;7.976;2023-06-14T09:33:56;9.27;;;1.50;;
1563;SDS011;775;51.958;7.976;2023-06-14T09:36:24;8.17;;;1.30;;
1563;SDS011;775;51.958;7.976;2023-06-14T09:38:52;8.90;;;1.47;;
1563;SDS011;775;51.958;7.976;2023-06-14T09:41:21;8.30;;;1.37;;
1563;SDS011;775;51.958;7.976;2023-06-14T09:43:57;10.10;;;1.60;;
1563;SDS011;775;51.958;7.976;2023-06-14T09:46:26;8.23;;;1.30;;
1563;SDS011;775;51.958;7.976;2023-06-14T09:48:53;9.70;;;1.57;;
1563;SDS011;775;51.958;7.976;2023-06-14T09:51:20;9.00;;;1.73;;
1563;SDS011;775;51.958;7.976;2023-06-14T09:53:48;8.37;;;1.50;;
1563;SDS011;775;51.958;7.976;2023-06-14T09:56:16;8.30;;;1.50;;
1563;SDS011;775;51.958;7.976;2023-06-14T09:58:48;8.57;;;1.70;;
1563;SDS011;775;51.958;7.976;2023-06-14T10:01:16;8.50;;;1.50;;
1563;SDS011;775;51.958;7.976;2023-06-14T10:03:44;8.80;;;2.00;;
1563;SDS011;775;51.958;7.976;2023-06-14T10:06:12;11.03;;;1.50;;
1563;SDS011;775;51.958;7.976;2023-06-14T10:08:40;8.40;;;1.27;;
1563;SDS011;775;51.958;7.976;2023-06-14T10:11:07;9.00;;;1.83;;
1563;SDS011;775;51.958;7.976;2023-06-14T10:13:34;9.13;;;1.60;;
1563;SDS011;775;51.958;7.976;2023-06-14T10:16:07;9.40;;;1.70;;
1563;SDS011;775;51.958;7.976;2023-06-14T10:18:40;8.50;;;1.40;;
1563;SDS011;775;51.958;7.976;2023-06-14T10:21:08;8.57;;;1.60;;
1563;SDS011;775;51.958;7.976;2023-06-14T10:23:40;8.87;;;1.83;;
1563;SDS011;775;51.958;7.976;2023-06-14T10:26:08;8.80;;;1.57;;
1563;SDS011;775;51.958;7.976;2023-06-14T10:28:37;8.67;;;1.80;;
1563;SDS011;775;51.958;7.976;2023-06-14T10:31:06;8.80;;;1.60;;
1563;SDS011;775;51.958;7.976;2023-06-14T10:33:33;8.93;;;1.77;;
1563;SDS011;775;51.958;7.976;2023-06-14T10:36:08;8.67;;;1.60;;
1563;SDS011;775;51.958;7.976;2023-06-14T10:38:36;9.60;;;1.70;;
1563;SDS011;775;51.958;7.976;2023-06-14T10:41:03;8.87;;;1.70;;
1563;SDS011;775;51.958;7.976;2023-06-14T10:43:31;8.60;;;1.67;;
1563;SDS011;775;51.958;7.976;2023-06-14T10:46:16;8.93;;;2.00;;
1563;SDS011;775;51.958;7.976;2023-06-14T10:48:43;10.20;;;1.70;;
1563;SDS011;775;51.958;7.976;2023-06-14T10:51:20;8.60;;;1.63;;
1563;SDS011;775;51.958;7.976;2023-06-14T10:53:47;8.43;;;1.50;;
1563;SDS011;775;51.958;7.976;2023-06-14T10:56:25;8.90;;;1.70;;
1563;SDS011;775;51.958;7.976;2023-06-14T10:58:53;8.90;;;2.00;;
1563;SDS011;775;51.958;7.976;2023-06-14T11:01:27;9.73;;;1.60;;
1563;SDS011;775;51.958;7.976;2023-06-14T11:04:00;9.07;;;1.67;;
1563;SDS011;775;51.958;7.976;2023-06-14T11:06:34;8.27;;;1.53;;
1563;SDS011;775;51.958;7.976;2023-06-14T11:09:19;8.57;;;1.83;;
1563;SDS011;775;51.958;7.976;2023-06-14T11:11:47;8.30;;;1.57;;
1563;SDS011;775;51.958;7.976;2023-06-14T11:14:15;8.17;;;1.30;;
1563;SDS011;775;51.958;7.976;2023-06-14T11:16:44;8.87;;;1.80;;
1563;SDS011;775;51.958;7.976;2023-06-14T11:19:14;8.60;;;1.83;;
1563;SDS011;775;51.958;7.976;2023-06-14T11:21:42;8.43;;;1.80;;
1563;SDS011;775;51.958;7.976;2023-06-14T11:24:10;8.67;;;1.83;;
1563;SDS011;775;51.958;7.976;2023-06-14T11:26:37;8.60;;;1.70;;
1563;SDS011;775;51.958;7.976;2023-06-14T11:29:05;8.63;;;1.70;;
1563;SDS011;775;51.958;7.976;2023-06-14T11:31:32;9.60;;;2.17;;
1563;SDS011;775;51.958;7.976;2023-06-14T11:34:00;8.70;;;1.87;;
1563;SDS011;775;51.958;7.976;2023-06-14T11:36:29;8.63;;;1.50;;
1563;SDS011;775;51.958;7.976;2023-06-14T11:38:59;9.10;;;2.10;;
1563;SDS011;775;51.958;7.976;2023-06-14T11:44:13;8.80;;;1.83;;
1563;SDS011;775;51.958;7.976;2023-06-14T11:46:40;8.77;;;1.80;;
1563;SDS011;775;51.958;7.976;2023-06-14T11:49:08;10.03;;;2.10;;
1563;SDS011;775;51.958;7.976;2023-06-14T11:51:35;10.47;;;1.90;;
1563;SDS011;775;51.958;7.976;2023-06-14T11:54:03;9.00;;;1.80;;
1563;SDS011;775;51.958;7.976;2023-06-14T11:56:30;8.67;;;1.80;;
1563;SDS011;775;51.958;7.976;2023-06-14T11:58:58;8.57;;;2.00;;
1563;SDS011;775;51.958;7.976;2023-06-14T12:01:25;8.67;;;2.00;;
1563;SDS011;775;51.958;7.976;2023-06-14T12:03:53;8.80;;;2.07;;
1563;SDS011;775;51.958;7.976;2023-06-14T12:06:28;8.60;;;1.80;;
1563;SDS011;775;51.958;7.976;2023-06-14T12:08:58;9.10;;;2.03;;
1563;SDS011;775;51.958;7.976;2023-06-14T12:11:28;8.60;;;1.80;;
1563;SDS011;775;51.958;7.976;2023-06-14T12:13:56;9.37;;;1.87;;
1563;SDS011;775;51.958;7.976;2023-06-14T12:16:29;9.63;;;2.03;;
1563;SDS011;775;51.958;7.976;2023-06-14T12:18:56;8.47;;;1.60;;
1563;SDS011;775;51.958;7.976;2023-06-14T12:21:26;8.60;;;1.77;;
1563;SDS011;775;51.958;7.976;2023-06-14T12:23:55;9.80;;;1.80;;
1563;SDS011;775;51.958;7.976;2023-06-14T12:26:22;9.57;;;2.00;;
1563;SDS011;775;51.958;7.976;2023-06-14T12:28:53;9.67;;;2.23;;
1563;SDS011;775;51.958;7.976;2023-06-14T12:31:20;8.77;;;2.03;;
1563;SDS011;775;51.958;7.976;2023-06-14T12:33:47;8.50;;;1.80;;
1563;SDS011;775;51.958;7.976;2023-06-14T12:36:15;10.80;;;2.17;;
1563;SDS011;775;51.958;7.976;2023-06-14T12:38:42;8.67;;;2.00;;
1563;SDS011;775;51.958;7.976;2023-06-14T12:41:12;8.60;;;2.10;;
1563;SDS011;775;51.958;7.976;2023-06-14T12:43:39;8.47;;;2.27;;
1563;SDS011;775;51.958;7.976;2023-06-14T12:46:07;8.50;;;1.77;;
1563;SDS011;775;51.958;7.976;2023-06-14T12:48:34;8.90;;;2.00;;
1563;SDS011;775;51.958;7.976;2023-06-14T12:51:01;8.97;;;2.10;;
1563;SDS011;775;51.958;7.976;2023-06-14T12:53:28;9.83;;;1.83;;
1563;SDS011;775;51.958;7.976;2023-06-14T12:55:55;9.17;;;2.00;;
1563;SDS011;775;51.958;7.976;2023-06-14T12:58:23;8.80;;;2.00;;
1563;SDS011;775;51.958;7.976;2023-06-14T13:00:51;9.60;;;1.70;;
1563;SDS011;775;51.958;7.976;2023-06-14T13:03:18;9.30;;;1.83;;
1563;SDS011;775;51.958;7.976;2023-06-14T13:05:45;9.30;;;1.90;;
1563;SDS011;775;51.958;7.976;2023-06-14T13:08:12;8.70;;;2.00;;
1563;SDS011;775;51.958;7.976;2023-06-14T13:10:39;8.33;;;1.70;;
1563;SDS011;775;51.958;7.976;2023-06-14T13:13:06;9.17;;;2.23;;
1563;SDS011;775;51.958;7.976;2023-06-14T13:15:35;9.00;;;2.20;;
1563;SDS011;775;51.958;7.976;2023-06-14T13:18:02;11.60;;;2.03;;
1563;SDS011;775;51.958;7.976;2023-06-14T13:20:29;9.00;;;2.03;;
1563;SDS011;775;51.958;7.976;2023-06-14T13:22:56;11.20;;;1.70;;
1563;SDS011;775;51.958;7.976;2023-06-14T13:25:23;8.27;;;1.73;;
1563;SDS011;775;51.958;7.976;2023-06-14T13:27:50;8.50;;;1.80;;
1563;SDS011;775;51.958;7.976;2023-06-14T13:30:17;9.80;;;2.03;;
1563;SDS011;775;51.958;7.976;2023-06-14T13:32:46;9.03;;;2.03;;
1563;SDS011;775;51.958;7.976;2023-06-14T13:35:14;8.67;;;1.90;;
1563;SDS011;775;51.958;7.976;2023-06-14T13:37:41;9.00;;;1.93;;
1563;SDS011;775;51.958;7.976;2023-06-14T13:40:08;8.80;;;2.00;;
1563;SDS011;775;51.958;7.976;2023-06-14T13:42:35;9.10;;;1.87;;
1563;SDS011;775;51.958;7.976;2023-06-14T13:45:02;8.47;;;1.80;;
1563;SDS011;775;51.958;7.976;2023-06-14T13:47:30;8.67;;;1.83;;
1563;SDS011;775;51.958;7.976;2023-06-14T13:49:58;8.70;;;2.07;;
1563;SDS011;775;51.958;7.976;2023-06-14T13:52:25;9.10;;;2.00;;
1563;SDS011;775;51.958;7.976;2023-06-14T13:54:53;9.60;;;2.10;;
1563;SDS011;775;51.958;7.976;2023-06-14T13:57:20;9.77;;;2.00;;
1563;SDS011;775;51.958;7.976;2023-06-14T13:59:47;9.30;;;2.00;;
1563;SDS011;775;51.958;7.976;2023-06-14T14:02:14;8.50;;;1.50;;
1563;SDS011;775;51.958;7.976;2023-06-14T14:04:41;8.53;;;2.00;;
1563;SDS011;775;51.958;7.976;2023-06-14T14:07:10;9.00;;;2.00;;
1563;SDS011;775;51.958;7.976;2023-06-14T14:09:37;8.17;;;1.60;;
1563;SDS011;775;51.958;7.976;2023-06-14T14:12:06;8.87;;;2.30;;
1563;SDS011;775;51.958;7.976;2023-06-14T14:14:33;8.70;;;2.10;;
1563;SDS011;775;51.958;7.976;2023-06-14T14:17:00;9.10;;;1.80;;
1563;SDS011;775;51.958;7.976;2023-06-14T14:19:27;8.53;;;1.53;;
1563;SDS011;775;51.958;7.976;2023-06-14T14:21:54;8.87;;;1.93;;
1563;SDS011;775;51.958;7.976;2023-06-14T14:24:23;8.87;;;2.10;;
1563;SDS011;775;51.958;7.976;2023-06-14T14:26:50;10.50;;;2.10;;
1563;SDS011;775;51.958;7.976;2023-06-14T14:29:18;8.63;;;1.90;;
1563;SDS011;775;51.958;7.976;2023-06-14T14:31:46;9.60;;;2.40;;
1563;SDS011;775;51.958;7.976;2023-06-14T14:34:13;9.20;;;1.87;;
1563;SDS011;775;51.958;7.976;2023-06-14T14:36:40;8.97;;;1.90;;
1563;SDS011;775;51.958;7.976;2023-06-14T14:39:07;9.27;;;2.43;;
1563;SDS011;775;51.958;7.976;2023-06-14T14:41:36;8.90;;;1.90;;
1563;SDS011;775;51.958;7.976;2023-06-14T14:44:05;8.70;;;1.87;;
1563;SDS011;775;51.958;7.976;2023-06-14T14:46:32;9.10;;;1.83;;
1563;SDS011;775;51.958;7.976;2023-06-14T14:48:59;8.97;;;2.10;;
1563;SDS011;775;51.958;7.976;2023-06-14T14:51:26;8.50;;;2.10;;
1563;SDS011;775;51.958;7.976;2023-06-14T14:53:53;9.23;;;1.63;;
1563;SDS011;775;51.958;7.976;2023-06-14T14:56:21;8.80;;;1.90;;
1563;SDS011;775;51.958;7.976;2023-06-14T14:58:49;8.87;;;2.00;;
1563;SDS011;775;51.958;7.976;2023-06-14T15:01:16;8.83;;;1.93;;
1563;SDS011;775;51.958;7.976;2023-06-14T15:03:43;10.30;;;2.57;;
1563;SDS011;775;51.958;7.976;2023-06-14T15:06:10;10.83;;;2.10;;
1563;SDS011;775;51.958;7.976;2023-06-14T15:08:38;9.40;;;2.20;;
1563;SDS011;775;51.958;7.976;2023-06-14T15:11:05;8.57;;;1.77;;
1563;SDS011;775;51.958;7.976;2023-06-14T15:13:32;8.90;;;2.00;;
1563;SDS011;775;51.958;7.976;2023-06-14T15:16:00;8.80;;;1.93;;
1563;SDS011;775;51.958;7.976;2023-06-14T15:18:27;9.17;;;1.97;;
1563;SDS011;775;51.958;7.976;2023-06-14T15:20:55;10.63;;;2.40;;
1563;SDS011;775;51.958;7.976;2023-06-14T15:23:22;9.20;;;2.00;;
1563;SDS011;775;51.958;7.976;2023-06-14T15:25:49;8.80;;;2.20;;
1563;SDS011;775;51.958;7.976;2023-06-14T15:28:16;9.03;;;2.20;;
1563;SDS011;775;51.958;7.976;2023-06-14T15:30:44;9.07;;;2.27;;
1563;SDS011;775;51.958;7.976;2023-06-14T15:33:12;8.93;;;2.07;;